sensor_id;sensor_type;location;lat;lon;timestamp;P1;durP1;ratioP1;P2;durP2;ratioP2
7365;SDS011;3723;52.220;8.792;2023-12-20T00:01:40;10.23;;;3.17;;
7365;SDS011;3723;52.220;8.792;2023-12-20T00:04:07;13.77;;;3.10;;
7365;SDS011;3723;52.220;8.792;2023-12-20T00:06:35;9.27;;;3.03;;
7365;SDS011;3723;52.220;8.792;2023-12-20T00:09:02;12.40;;;2.70;;
7365;SDS011;3723;52.220;8.792;2023-12-20T00:11:29;11.20;;;3.20;;
7365;SDS011;3723;52.220;8.792;2023-12-20T00:13:56;9.70;;;2.53;;
7365;SDS011;3723;52.220;8.792;2023-12-20T00:16:23;10.43;;;2.90;;
7365;SDS011;3723;52.220;8.792;2023-12-20T00:18:50;13.93;;;2.77;;
7365;SDS011;3723;52.220;8.792;2023-12-20T00:21:17;10.90;;;2.00;;
7365;SDS011;3723;52.220;8.792;2023-12-20T00:23:45;12.23;;;2.00;;
7365;SDS011;3723;52.220;8.792;2023-12-20T00:26:12;13.63;;;3.50;;
7365;SDS011;3723;52.220;8.792;2023-12-20T00:28:38;13.23;;;3.30;;
7365;SDS011;3723;52.220;8.792;2023-12-20T00:31:04;12.97;;;2.90;;
7365;SDS011;3723;52.220;8.792;2023-12-20T00:33:33;12.10;;;3.90;;
7365;SDS011;3723;52.220;8.792;2023-12-20T00:36:00;12.33;;;3.13;;
7365;SDS011;3723;52.220;8.792;2023-12-20T00:38:26;13.90;;;2.90;;
7365;SDS011;3723;52.220;8.792;2023-12-20T00:40:56;10.93;;;2.77;;
7365;SDS011;3723;52.220;8.792;2023-12-20T00:43:23;13.87;;;4.13;;
7365;SDS011;3723;52.220;8.792;2023-12-20T00:45:49;13.40;;;4.40;;
7365;SDS011;3723;52.220;8.792;2023-12-20T00:48:16;11.60;;;3.30;;
7365;SDS011;3723;52.220;8.792;2023-12-20T00:50:43;11.07;;;3.10;;
7365;SDS011;3723;52.220;8.792;2023-12-20T00:53:10;13.70;;;3.97;;
7365;SDS011;3723;52.220;8.792;2023-12-20T00:55:37;15.00;;;2.83;;
7365;SDS011;3723;52.220;8.792;2023-12-20T00:58:06;9.57;;;2.80;;
7365;SDS011;3723;52.220;8.792;2023-12-20T01:00:33;12.30;;;2.90;;
7365;SDS011;3723;52.220;8.792;2023-12-20T01:03:00;8.10;;;2.27;;
7365;SDS011;3723;52.220;8.792;2023-12-20T01:05:27;10.77;;;2.80;;
7365;SDS011;3723;52.220;8.792;2023-12-20T01:07:54;11.40;;;2.03;;
7365;SDS011;3723;52.220;8.792;2023-12-20T01:10:21;13.67;;;3.80;;
7365;SDS011;3723;52.220;8.792;2023-12-20T01:12:48;16.90;;;3.30;;
7365;SDS011;3723;52.220;8.792;2023-12-20T01:15:17;9.23;;;2.03;;
7365;SDS011;3723;52.220;8.792;2023-12-20T01:17:43;14.73;;;2.67;;
7365;SDS011;3723;52.220;8.792;2023-12-20T01:20:10;10.80;;;2.50;;
7365;SDS011;3723;52.220;8.792;2023-12-20T01:22:37;10.80;;;2.53;;
7365;SDS011;3723;52.220;8.792;2023-12-20T01:25:04;9.90;;;3.07;;
7365;SDS011;3723;52.220;8.792;2023-12-20T01:27:32;12.43;;;2.97;;
7365;SDS011;3723;52.220;8.792;2023-12-20T01:29:58;15.23;;;2.60;;
7365;SDS011;3723;52.220;8.792;2023-12-20T01:32:27;10.80;;;2.40;;
7365;SDS011;3723;52.220;8.792;2023-12-20T01:34:53;10.27;;;2.07;;
7365;SDS011;3723;52.220;8.792;2023-12-20T01:37:22;9.53;;;1.73;;
7365;SDS011;3723;52.220;8.792;2023-12-20T01:39:50;9.00;;;1.83;;
7365;SDS011;3723;52.220;8.792;2023-12-20T01:42:18;8.93;;;1.93;;
7365;SDS011;3723;52.220;8.792;2023-12-20T01:44:47;10.93;;;2.17;;
7365;SDS011;3723;52.220;8.792;2023-12-20T01:47:29;11.07;;;1.90;;
7365;SDS011;3723;52.220;8.792;2023-12-20T01:49:56;9.57;;;1.63;;
7365;SDS011;3723;52.220;8.792;2023-12-20T01:52:23;12.93;;;1.60;;
7365;SDS011;3723;52.220;8.792;2023-12-20T01:54:51;8.73;;;1.33;;
7365;SDS011;3723;52.220;8.792;2023-12-20T01:57:19;9.03;;;1.63;;
7365;SDS011;3723;52.220;8.792;2023-12-20T01:59:47;7.30;;;1.43;;
7365;SDS011;3723;52.220;8.792;2023-12-20T02:02:14;7.63;;;1.57;;
7365;SDS011;3723;52.220;8.792;2023-12-20T02:04:42;9.77;;;1.50;;
7365;SDS011;3723;52.220;8.792;2023-12-20T02:07:09;15.80;;;2.80;;
7365;SDS011;3723;52.220;8.792;2023-12-20T02:09:39;7.60;;;1.43;;
7365;SDS011;3723;52.220;8.792;2023-12-20T02:12:06;10.57;;;2.10;;
7365;SDS011;3723;52.220;8.792;2023-12-20T02:14:33;10.97;;;1.63;;
7365;SDS011;3723;52.220;8.792;2023-12-20T02:17:00;10.20;;;2.00;;
7365;SDS011;3723;52.220;8.792;2023-12-20T02:19:27;10.70;;;1.80;;
7365;SDS011;3723;52.220;8.792;2023-12-20T02:22:05;8.63;;;1.90;;
7365;SDS011;3723;52.220;8.792;2023-12-20T02:24:34;9.40;;;1.50;;
7365;SDS011;3723;52.220;8.792;2023-12-20T02:27:01;11.57;;;2.80;;
7365;SDS011;3723;52.220;8.792;2023-12-20T02:29:29;17.53;;;1.87;;
7365;SDS011;3723;52.220;8.792;2023-12-20T02:31:56;9.67;;;1.63;;
7365;SDS011;3723;52.220;8.792;2023-12-20T02:34:23;11.60;;;1.40;;
7365;SDS011;3723;52.220;8.792;2023-12-20T02:36:50;6.10;;;1.00;;
7365;SDS011;3723;52.220;8.792;2023-12-20T02:39:18;8.83;;;1.50;;
7365;SDS011;3723;52.220;8.792;2023-12-20T02:41:46;8.57;;;2.00;;
7365;SDS011;3723;52.220;8.792;2023-12-20T02:44:13;13.80;;;1.67;;
7365;SDS011;3723;52.220;8.792;2023-12-20T02:46:42;9.03;;;1.40;;
7365;SDS011;3723;52.220;8.792;2023-12-20T02:49:09;8.77;;;1.53;;
7365;SDS011;3723;52.220;8.792;2023-12-20T02:51:36;7.63;;;1.30;;
7365;SDS011;3723;52.220;8.792;2023-12-20T02:54:04;8.90;;;1.67;;
7365;SDS011;3723;52.220;8.792;2023-12-20T02:56:33;8.83;;;1.40;;
7365;SDS011;3723;52.220;8.792;2023-12-20T02:59:00;13.23;;;1.80;;
7365;SDS011;3723;52.220;8.792;2023-12-20T03:01:27;10.77;;;1.37;;
7365;SDS011;3723;52.220;8.792;2023-12-20T03:03:54;9.80;;;1.40;;
7365;SDS011;3723;52.220;8.792;2023-12-20T03:06:21;8.93;;;1.60;;
7365;SDS011;3723;52.220;8.792;2023-12-20T03:08:48;10.33;;;2.80;;
7365;SDS011;3723;52.220;8.792;2023-12-20T03:11:21;10.80;;;1.90;;
7365;SDS011;3723;52.220;8.792;2023-12-20T03:13:50;11.47;;;1.70;;
7365;SDS011;3723;52.220;8.792;2023-12-20T03:16:17;16.33;;;4.20;;
7365;SDS011;3723;52.220;8.792;2023-12-20T03:18:43;8.03;;;1.40;;
7365;SDS011;3723;52.220;8.792;2023-12-20T03:21:10;15.23;;;2.43;;
7365;SDS011;3723;52.220;8.792;2023-12-20T03:23:37;10.30;;;2.37;;
7365;SDS011;3723;52.220;8.792;2023-12-20T03:26:06;11.57;;;2.33;;
7365;SDS011;3723;52.220;8.792;2023-12-20T03:28:34;15.47;;;4.10;;
7365;SDS011;3723;52.220;8.792;2023-12-20T03:31:03;16.23;;;2.97;;
7365;SDS011;3723;52.220;8.792;2023-12-20T03:33:30;13.47;;;4.17;;
7365;SDS011;3723;52.220;8.792;2023-12-20T03:35:57;17.77;;;2.33;;
7365;SDS011;3723;52.220;8.792;2023-12-20T03:38:23;11.07;;;1.83;;
7365;SDS011;3723;52.220;8.792;2023-12-20T03:40:50;12.53;;;2.13;;
7365;SDS011;3723;52.220;8.792;2023-12-20T03:43:17;9.60;;;2.13;;
7365;SDS011;3723;52.220;8.792;2023-12-20T03:45:44;9.43;;;1.60;;
7365;SDS011;3723;52.220;8.792;2023-12-20T03:48:17;12.43;;;1.80;;
7365;SDS011;3723;52.220;8.792;2023-12-20T03:50:48;7.90;;;1.90;;
7365;SDS011;3723;52.220;8.792;2023-12-20T03:53:15;8.43;;;1.73;;
7365;SDS011;3723;52.220;8.792;2023-12-20T03:55:42;21.20;;;2.40;;
7365;SDS011;3723;52.220;8.792;2023-12-20T03:58:11;10.73;;;2.37;;
7365;SDS011;3723;52.220;8.792;2023-12-20T04:00:40;16.13;;;2.73;;
7365;SDS011;3723;52.220;8.792;2023-12-20T04:03:09;16.73;;;3.00;;
7365;SDS011;3723;52.220;8.792;2023-12-20T04:05:39;10.90;;;2.50;;
7365;SDS011;3723;52.220;8.792;2023-12-20T04:08:06;12.67;;;2.07;;
7365;SDS011;3723;52.220;8.792;2023-12-20T04:10:33;12.23;;;2.87;;
7365;SDS011;3723;52.220;8.792;2023-12-20T04:13:00;18.40;;;5.90;;
7365;SDS011;3723;52.220;8.792;2023-12-20T04:15:27;16.57;;;3.83;;
7365;SDS011;3723;52.220;8.792;2023-12-20T04:17:54;12.30;;;2.83;;
7365;SDS011;3723;52.220;8.792;2023-12-20T04:20:20;13.60;;;3.00;;
7365;SDS011;3723;52.220;8.792;2023-12-20T04:22:48;11.73;;;1.77;;
7365;SDS011;3723;52.220;8.792;2023-12-20T04:25:15;8.20;;;1.80;;
7365;SDS011;3723;52.220;8.792;2023-12-20T04:27:42;10.70;;;2.80;;
7365;SDS011;3723;52.220;8.792;2023-12-20T04:30:09;9.00;;;2.33;;
7365;SDS011;3723;52.220;8.792;2023-12-20T04:32:39;13.97;;;2.27;;
7365;SDS011;3723;52.220;8.792;2023-12-20T04:35:06;12.30;;;2.33;;
7365;SDS011;3723;52.220;8.792;2023-12-20T04:37:36;8.83;;;1.90;;
7365;SDS011;3723;52.220;8.792;2023-12-20T04:40:05;16.17;;;2.57;;
7365;SDS011;3723;52.220;8.792;2023-12-20T04:42:33;8.97;;;2.30;;
7365;SDS011;3723;52.220;8.792;2023-12-20T04:45:00;16.90;;;3.40;;
7365;SDS011;3723;52.220;8.792;2023-12-20T04:47:27;16.43;;;2.87;;
7365;SDS011;3723;52.220;8.792;2023-12-20T04:49:54;11.20;;;1.90;;
7365;SDS011;3723;52.220;8.792;2023-12-20T04:52:22;11.03;;;2.23;;
7365;SDS011;3723;52.220;8.792;2023-12-20T04:54:49;19.23;;;2.67;;
7365;SDS011;3723;52.220;8.792;2023-12-20T04:57:17;10.67;;;2.40;;
7365;SDS011;3723;52.220;8.792;2023-12-20T04:59:44;14.70;;;2.90;;
7365;SDS011;3723;52.220;8.792;2023-12-20T05:02:11;10.60;;;2.23;;
7365;SDS011;3723;52.220;8.792;2023-12-20T05:04:38;12.43;;;2.90;;
7365;SDS011;3723;52.220;8.792;2023-12-20T05:07:05;13.37;;;2.80;;
7365;SDS011;3723;52.220;8.792;2023-12-20T05:09:32;13.60;;;3.23;;
7365;SDS011;3723;52.220;8.792;2023-12-20T05:11:59;13.67;;;3.93;;
7365;SDS011;3723;52.220;8.792;2023-12-20T05:14:27;12.90;;;2.90;;
7365;SDS011;3723;52.220;8.792;2023-12-20T05:16:54;10.73;;;2.23;;
7365;SDS011;3723;52.220;8.792;2023-12-20T05:19:22;18.77;;;3.20;;
7365;SDS011;3723;52.220;8.792;2023-12-20T05:21:49;14.33;;;1.87;;
7365;SDS011;3723;52.220;8.792;2023-12-20T05:24:16;10.10;;;2.10;;
7365;SDS011;3723;52.220;8.792;2023-12-20T05:26:43;8.00;;;1.63;;
7365;SDS011;3723;52.220;8.792;2023-12-20T05:29:10;16.50;;;2.10;;
7365;SDS011;3723;52.220;8.792;2023-12-20T05:31:39;16.13;;;3.63;;
7365;SDS011;3723;52.220;8.792;2023-12-20T05:34:05;16.03;;;4.40;;
7365;SDS011;3723;52.220;8.792;2023-12-20T05:36:33;10.70;;;2.00;;
7365;SDS011;3723;52.220;8.792;2023-12-20T05:39:00;25.87;;;2.83;;
7365;SDS011;3723;52.220;8.792;2023-12-20T05:41:27;10.77;;;1.90;;
7365;SDS011;3723;52.220;8.792;2023-12-20T05:43:54;20.17;;;2.80;;
7365;SDS011;3723;52.220;8.792;2023-12-20T05:46:22;18.33;;;3.43;;
7365;SDS011;3723;52.220;8.792;2023-12-20T05:48:51;10.30;;;1.97;;
7365;SDS011;3723;52.220;8.792;2023-12-20T05:51:18;26.10;;;4.30;;
7365;SDS011;3723;52.220;8.792;2023-12-20T05:53:45;16.73;;;3.03;;
7365;SDS011;3723;52.220;8.792;2023-12-20T05:56:12;11.07;;;2.50;;
7365;SDS011;3723;52.220;8.792;2023-12-20T05:58:39;11.20;;;2.57;;
7365;SDS011;3723;52.220;8.792;2023-12-20T06:01:07;12.23;;;1.90;;
7365;SDS011;3723;52.220;8.792;2023-12-20T06:03:34;9.63;;;1.90;;
7365;SDS011;3723;52.220;8.792;2023-12-20T06:06:05;17.20;;;2.70;;
7365;SDS011;3723;52.220;8.792;2023-12-20T06:08:32;16.50;;;3.50;;
7365;SDS011;3723;52.220;8.792;2023-12-20T06:10:59;10.07;;;2.07;;
7365;SDS011;3723;52.220;8.792;2023-12-20T06:13:26;9.77;;;2.60;;
7365;SDS011;3723;52.220;8.792;2023-12-20T06:15:55;9.63;;;1.83;;
7365;SDS011;3723;52.220;8.792;2023-12-20T06:18:23;24.43;;;3.53;;
7365;SDS011;3723;52.220;8.792;2023-12-20T06:20:51;10.33;;;2.60;;
7365;SDS011;3723;52.220;8.792;2023-12-20T06:23:19;13.10;;;2.00;;
7365;SDS011;3723;52.220;8.792;2023-12-20T06:25:46;13.70;;;2.20;;
7365;SDS011;3723;52.220;8.792;2023-12-20T06:28:14;14.90;;;1.57;;
7365;SDS011;3723;52.220;8.792;2023-12-20T06:30:40;14.63;;;2.27;;
7365;SDS011;3723;52.220;8.792;2023-12-20T06:33:07;15.37;;;3.57;;
7365;SDS011;3723;52.220;8.792;2023-12-20T06:35:35;15.07;;;2.43;;
7365;SDS011;3723;52.220;8.792;2023-12-20T06:38:01;12.97;;;2.30;;
7365;SDS011;3723;52.220;8.792;2023-12-20T06:40:30;12.53;;;2.70;;
7365;SDS011;3723;52.220;8.792;2023-12-20T06:42:57;12.83;;;1.93;;
7365;SDS011;3723;52.220;8.792;2023-12-20T06:45:24;14.70;;;2.23;;
7365;SDS011;3723;52.220;8.792;2023-12-20T06:47:51;12.07;;;2.83;;
7365;SDS011;3723;52.220;8.792;2023-12-20T06:50:19;12.33;;;3.37;;
7365;SDS011;3723;52.220;8.792;2023-12-20T06:52:46;18.13;;;3.07;;
7365;SDS011;3723;52.220;8.792;2023-12-20T06:55:14;17.73;;;2.57;;
7365;SDS011;3723;52.220;8.792;2023-12-20T06:57:43;17.00;;;2.53;;
7365;SDS011;3723;52.220;8.792;2023-12-20T07:00:12;14.50;;;2.40;;
7365;SDS011;3723;52.220;8.792;2023-12-20T07:02:39;12.50;;;2.60;;
7365;SDS011;3723;52.220;8.792;2023-12-20T07:05:06;12.00;;;2.80;;
7365;SDS011;3723;52.220;8.792;2023-12-20T07:07:34;18.03;;;4.10;;
7365;SDS011;3723;52.220;8.792;2023-12-20T07:10:01;13.60;;;2.97;;
7365;SDS011;3723;52.220;8.792;2023-12-20T07:12:28;11.13;;;2.30;;
7365;SDS011;3723;52.220;8.792;2023-12-20T07:14:56;13.80;;;2.20;;
7365;SDS011;3723;52.220;8.792;2023-12-20T07:17:23;15.57;;;2.97;;
7365;SDS011;3723;52.220;8.792;2023-12-20T07:19:50;16.03;;;2.53;;
7365;SDS011;3723;52.220;8.792;2023-12-20T07:22:16;12.87;;;3.00;;
7365;SDS011;3723;52.220;8.792;2023-12-20T07:24:44;12.00;;;2.10;;
7365;SDS011;3723;52.220;8.792;2023-12-20T07:27:11;13.07;;;3.73;;
7365;SDS011;3723;52.220;8.792;2023-12-20T07:29:38;12.63;;;2.93;;
7365;SDS011;3723;52.220;8.792;2023-12-20T07:32:06;15.60;;;2.67;;
7365;SDS011;3723;52.220;8.792;2023-12-20T07:34:33;16.17;;;2.17;;
7365;SDS011;3723;52.220;8.792;2023-12-20T07:37:00;14.83;;;3.97;;
7365;SDS011;3723;52.220;8.792;2023-12-20T07:39:27;12.27;;;2.80;;
7365;SDS011;3723;52.220;8.792;2023-12-20T07:41:54;17.63;;;2.50;;
7365;SDS011;3723;52.220;8.792;2023-12-20T07:44:21;10.20;;;3.33;;
7365;SDS011;3723;52.220;8.792;2023-12-20T07:46:47;14.63;;;3.03;;
7365;SDS011;3723;52.220;8.792;2023-12-20T07:49:16;11.57;;;2.10;;
7365;SDS011;3723;52.220;8.792;2023-12-20T07:51:43;12.23;;;2.43;;
7365;SDS011;3723;52.220;8.792;2023-12-20T07:54:09;12.70;;;2.33;;
7365;SDS011;3723;52.220;8.792;2023-12-20T07:56:36;20.20;;;2.90;;
7365;SDS011;3723;52.220;8.792;2023-12-20T07:59:05;14.67;;;2.67;;
7365;SDS011;3723;52.220;8.792;2023-12-20T08:01:32;13.37;;;2.40;;
7365;SDS011;3723;52.220;8.792;2023-12-20T08:03:59;9.73;;;2.83;;
7365;SDS011;3723;52.220;8.792;2023-12-20T08:06:27;12.33;;;2.30;;
7365;SDS011;3723;52.220;8.792;2023-12-20T08:08:54;12.67;;;2.77;;
7365;SDS011;3723;52.220;8.792;2023-12-20T08:11:20;13.20;;;2.50;;
7365;SDS011;3723;52.220;8.792;2023-12-20T08:13:47;15.33;;;3.27;;
7365;SDS011;3723;52.220;8.792;2023-12-20T08:16:14;14.27;;;2.47;;
7365;SDS011;3723;52.220;8.792;2023-12-20T08:18:42;13.70;;;4.20;;
7365;SDS011;3723;52.220;8.792;2023-12-20T08:21:12;18.93;;;3.67;;
7365;SDS011;3723;52.220;8.792;2023-12-20T08:23:40;10.70;;;2.17;;
7365;SDS011;3723;52.220;8.792;2023-12-20T08:26:07;10.70;;;2.23;;
7365;SDS011;3723;52.220;8.792;2023-12-20T08:31:37;12.17;;;2.20;;
7365;SDS011;3723;52.220;8.792;2023-12-20T08:37:28;13.47;;;2.47;;
7365;SDS011;3723;52.220;8.792;2023-12-20T08:39:57;14.83;;;2.63;;
7365;SDS011;3723;52.220;8.792;2023-12-20T08:45:46;15.07;;;2.20;;
7365;SDS011;3723;52.220;8.792;2023-12-20T08:48:18;10.07;;;2.43;;
7365;SDS011;3723;52.220;8.792;2023-12-20T08:50:45;14.70;;;3.90;;
7365;SDS011;3723;52.220;8.792;2023-12-20T08:53:13;14.63;;;2.90;;
7365;SDS011;3723;52.220;8.792;2023-12-20T08:55:43;19.30;;;3.93;;
7365;SDS011;3723;52.220;8.792;2023-12-20T08:58:10;12.33;;;3.30;;
7365;SDS011;3723;52.220;8.792;2023-12-20T09:00:37;14.43;;;2.20;;
7365;SDS011;3723;52.220;8.792;2023-12-20T09:03:10;15.43;;;2.70;;
7365;SDS011;3723;52.220;8.792;2023-12-20T09:05:37;11.27;;;2.17;;
7365;SDS011;3723;52.220;8.792;2023-12-20T09:08:04;13.53;;;2.30;;
7365;SDS011;3723;52.220;8.792;2023-12-20T09:10:32;9.20;;;1.83;;
7365;SDS011;3723;52.220;8.792;2023-12-20T09:13:01;10.47;;;2.00;;
7365;SDS011;3723;52.220;8.792;2023-12-20T09:15:29;10.13;;;2.40;;
7365;SDS011;3723;52.220;8.792;2023-12-20T09:17:56;11.13;;;2.27;;
7365;SDS011;3723;52.220;8.792;2023-12-20T09:20:23;18.30;;;2.37;;
7365;SDS011;3723;52.220;8.792;2023-12-20T09:22:50;12.83;;;2.20;;
7365;SDS011;3723;52.220;8.792;2023-12-20T09:25:17;9.43;;;2.00;;
7365;SDS011;3723;52.220;8.792;2023-12-20T09:27:44;16.47;;;3.53;;
7365;SDS011;3723;52.220;8.792;2023-12-20T09:30:12;25.23;;;3.07;;
7365;SDS011;3723;52.220;8.792;2023-12-20T09:32:39;17.67;;;4.10;;
7365;SDS011;3723;52.220;8.792;2023-12-20T09:35:06;12.70;;;2.17;;
7365;SDS011;3723;52.220;8.792;2023-12-20T09:37:34;14.60;;;2.30;;
7365;SDS011;3723;52.220;8.792;2023-12-20T09:40:01;19.30;;;2.40;;
7365;SDS011;3723;52.220;8.792;2023-12-20T09:42:29;20.90;;;2.60;;
7365;SDS011;3723;52.220;8.792;2023-12-20T09:45:03;16.80;;;5.00;;
7365;SDS011;3723;52.220;8.792;2023-12-20T09:47:37;11.27;;;2.70;;
7365;SDS011;3723;52.220;8.792;2023-12-20T09:50:04;8.07;;;1.53;;
7365;SDS011;3723;52.220;8.792;2023-12-20T09:52:32;12.63;;;2.57;;
7365;SDS011;3723;52.220;8.792;2023-12-20T09:55:01;15.60;;;4.00;;
7365;SDS011;3723;52.220;8.792;2023-12-20T09:57:31;9.93;;;2.97;;
7365;SDS011;3723;52.220;8.792;2023-12-20T09:59:58;8.93;;;1.77;;
7365;SDS011;3723;52.220;8.792;2023-12-20T10:02:27;24.90;;;3.87;;
7365;SDS011;3723;52.220;8.792;2023-12-20T10:04:56;22.07;;;3.10;;
7365;SDS011;3723;52.220;8.792;2023-12-20T10:07:23;16.40;;;2.37;;
7365;SDS011;3723;52.220;8.792;2023-12-20T10:09:51;25.03;;;3.40;;
7365;SDS011;3723;52.220;8.792;2023-12-20T10:12:21;15.93;;;3.97;;
7365;SDS011;3723;52.220;8.792;2023-12-20T10:14:48;13.47;;;2.17;;
7365;SDS011;3723;52.220;8.792;2023-12-20T10:17:16;13.97;;;3.23;;
7365;SDS011;3723;52.220;8.792;2023-12-20T10:19:43;18.50;;;3.63;;
7365;SDS011;3723;52.220;8.792;2023-12-20T10:22:12;12.17;;;2.83;;
7365;SDS011;3723;52.220;8.792;2023-12-20T10:24:39;11.23;;;3.77;;
7365;SDS011;3723;52.220;8.792;2023-12-20T10:27:07;16.70;;;3.73;;
7365;SDS011;3723;52.220;8.792;2023-12-20T10:29:34;11.70;;;2.73;;
7365;SDS011;3723;52.220;8.792;2023-12-20T10:32:21;13.93;;;3.07;;
7365;SDS011;3723;52.220;8.792;2023-12-20T10:34:49;24.33;;;3.10;;
7365;SDS011;3723;52.220;8.792;2023-12-20T10:37:17;13.43;;;2.70;;
7365;SDS011;3723;52.220;8.792;2023-12-20T10:39:44;15.50;;;2.70;;
7365;SDS011;3723;52.220;8.792;2023-12-20T10:42:15;16.97;;;2.97;;
7365;SDS011;3723;52.220;8.792;2023-12-20T10:44:43;11.13;;;2.80;;
7365;SDS011;3723;52.220;8.792;2023-12-20T10:47:10;13.53;;;3.60;;
7365;SDS011;3723;52.220;8.792;2023-12-20T10:49:39;15.13;;;2.50;;
7365;SDS011;3723;52.220;8.792;2023-12-20T10:52:08;10.73;;;2.80;;
7365;SDS011;3723;52.220;8.792;2023-12-20T10:54:39;12.20;;;2.60;;
7365;SDS011;3723;52.220;8.792;2023-12-20T10:57:06;13.60;;;3.10;;
7365;SDS011;3723;52.220;8.792;2023-12-20T10:59:33;12.90;;;2.90;;
7365;SDS011;3723;52.220;8.792;2023-12-20T11:02:03;14.73;;;2.87;;
7365;SDS011;3723;52.220;8.792;2023-12-20T11:04:34;11.43;;;3.87;;
7365;SDS011;3723;52.220;8.792;2023-12-20T11:07:07;15.73;;;2.57;;
7365;SDS011;3723;52.220;8.792;2023-12-20T11:09:54;19.73;;;4.50;;
7365;SDS011;3723;52.220;8.792;2023-12-20T11:12:27;16.03;;;3.63;;
7365;SDS011;3723;52.220;8.792;2023-12-20T11:15:04;10.63;;;1.87;;
7365;SDS011;3723;52.220;8.792;2023-12-20T11:17:32;9.00;;;1.97;;
7365;SDS011;3723;52.220;8.792;2023-12-20T11:20:06;12.80;;;3.43;;
7365;SDS011;3723;52.220;8.792;2023-12-20T11:22:38;9.97;;;1.87;;
7365;SDS011;3723;52.220;8.792;2023-12-20T11:25:18;9.33;;;2.30;;
7365;SDS011;3723;52.220;8.792;2023-12-20T11:27:46;11.40;;;1.70;;
7365;SDS011;3723;52.220;8.792;2023-12-20T11:30:43;16.60;;;1.97;;
7365;SDS011;3723;52.220;8.792;2023-12-20T11:33:13;11.80;;;1.80;;
7365;SDS011;3723;52.220;8.792;2023-12-20T11:35:40;15.47;;;1.60;;
7365;SDS011;3723;52.220;8.792;2023-12-20T11:38:08;11.93;;;2.13;;
7365;SDS011;3723;52.220;8.792;2023-12-20T11:40:37;8.47;;;2.07;;
7365;SDS011;3723;52.220;8.792;2023-12-20T11:43:04;6.63;;;1.23;;
7365;SDS011;3723;52.220;8.792;2023-12-20T11:45:47;8.73;;;1.70;;
7365;SDS011;3723;52.220;8.792;2023-12-20T11:48:16;10.63;;;1.60;;
7365;SDS011;3723;52.220;8.792;2023-12-20T11:50:46;8.80;;;1.30;;
7365;SDS011;3723;52.220;8.792;2023-12-20T11:56:20;10.00;;;1.50;;
7365;SDS011;3723;52.220;8.792;2023-12-20T11:58:49;9.27;;;1.60;;
7365;SDS011;3723;52.220;8.792;2023-12-20T12:01:24;11.50;;;1.40;;
7365;SDS011;3723;52.220;8.792;2023-12-20T12:04:02;9.70;;;1.73;;
7365;SDS011;3723;52.220;8.792;2023-12-20T12:06:29;9.87;;;1.30;;
7365;SDS011;3723;52.220;8.792;2023-12-20T12:08:56;12.07;;;1.63;;
7365;SDS011;3723;52.220;8.792;2023-12-20T12:11:24;8.40;;;1.67;;
7365;SDS011;3723;52.220;8.792;2023-12-20T12:13:58;14.23;;;1.90;;
7365;SDS011;3723;52.220;8.792;2023-12-20T12:16:25;9.00;;;2.20;;
7365;SDS011;3723;52.220;8.792;2023-12-20T12:18:55;12.30;;;1.40;;
7365;SDS011;3723;52.220;8.792;2023-12-20T12:21:23;9.40;;;1.53;;
7365;SDS011;3723;52.220;8.792;2023-12-20T12:23:52;11.30;;;1.80;;
7365;SDS011;3723;52.220;8.792;2023-12-20T12:26:19;10.37;;;1.90;;
7365;SDS011;3723;52.220;8.792;2023-12-20T12:28:47;13.13;;;1.67;;
7365;SDS011;3723;52.220;8.792;2023-12-20T12:31:16;9.20;;;1.47;;
7365;SDS011;3723;52.220;8.792;2023-12-20T12:33:43;10.97;;;1.30;;
7365;SDS011;3723;52.220;8.792;2023-12-20T12:36:10;8.67;;;1.13;;
7365;SDS011;3723;52.220;8.792;2023-12-20T12:38:41;11.33;;;1.00;;
7365;SDS011;3723;52.220;8.792;2023-12-20T12:41:08;11.50;;;1.90;;
7365;SDS011;3723;52.220;8.792;2023-12-20T12:43:35;11.83;;;1.43;;
7365;SDS011;3723;52.220;8.792;2023-12-20T12:46:04;12.13;;;1.40;;
7365;SDS011;3723;52.220;8.792;2023-12-20T12:48:31;7.57;;;1.00;;
7365;SDS011;3723;52.220;8.792;2023-12-20T12:50:58;8.33;;;1.50;;
7365;SDS011;3723;52.220;8.792;2023-12-20T12:53:25;9.07;;;1.50;;
7365;SDS011;3723;52.220;8.792;2023-12-20T12:55:53;14.57;;;1.57;;
7365;SDS011;3723;52.220;8.792;2023-12-20T12:58:20;9.90;;;1.67;;
7365;SDS011;3723;52.220;8.792;2023-12-20T13:01:01;6.43;;;1.10;;
7365;SDS011;3723;52.220;8.792;2023-12-20T13:03:30;7.60;;;1.63;;
7365;SDS011;3723;52.220;8.792;2023-12-20T13:05:56;7.90;;;1.13;;
7365;SDS011;3723;52.220;8.792;2023-12-20T13:08:23;10.67;;;1.50;;
7365;SDS011;3723;52.220;8.792;2023-12-20T13:10:50;7.90;;;1.10;;
7365;SDS011;3723;52.220;8.792;2023-12-20T13:13:17;11.53;;;1.10;;
7365;SDS011;3723;52.220;8.792;2023-12-20T13:15:44;10.83;;;1.23;;
7365;SDS011;3723;52.220;8.792;2023-12-20T13:18:16;12.03;;;1.20;;
7365;SDS011;3723;52.220;8.792;2023-12-20T13:21:00;7.10;;;1.00;;
7365;SDS011;3723;52.220;8.792;2023-12-20T13:23:27;11.77;;;1.80;;
7365;SDS011;3723;52.220;8.792;2023-12-20T13:25:54;8.23;;;1.37;;
7365;SDS011;3723;52.220;8.792;2023-12-20T13:28:21;8.00;;;1.10;;
7365;SDS011;3723;52.220;8.792;2023-12-20T13:30:47;12.50;;;1.53;;
7365;SDS011;3723;52.220;8.792;2023-12-20T13:33:14;9.23;;;0.90;;
7365;SDS011;3723;52.220;8.792;2023-12-20T13:35:41;7.10;;;1.00;;
7365;SDS011;3723;52.220;8.792;2023-12-20T13:38:10;11.70;;;1.37;;
7365;SDS011;3723;52.220;8.792;2023-12-20T13:40:43;7.20;;;0.90;;
7365;SDS011;3723;52.220;8.792;2023-12-20T13:43:29;8.10;;;1.10;;
7365;SDS011;3723;52.220;8.792;2023-12-20T13:45:57;7.17;;;0.97;;
7365;SDS011;3723;52.220;8.792;2023-12-20T13:48:24;10.57;;;0.80;;
7365;SDS011;3723;52.220;8.792;2023-12-20T13:50:51;11.73;;;1.30;;
7365;SDS011;3723;52.220;8.792;2023-12-20T13:53:21;13.63;;;1.03;;
7365;SDS011;3723;52.220;8.792;2023-12-20T13:55:48;9.83;;;1.13;;
7365;SDS011;3723;52.220;8.792;2023-12-20T13:58:15;7.10;;;0.80;;
7365;SDS011;3723;52.220;8.792;2023-12-20T14:00:57;9.17;;;1.23;;
7365;SDS011;3723;52.220;8.792;2023-12-20T14:03:24;8.93;;;0.90;;
7365;SDS011;3723;52.220;8.792;2023-12-20T14:05:51;8.30;;;1.13;;
7365;SDS011;3723;52.220;8.792;2023-12-20T14:11:07;8.17;;;1.10;;
7365;SDS011;3723;52.220;8.792;2023-12-20T14:13:34;7.70;;;1.00;;
7365;SDS011;3723;52.220;8.792;2023-12-20T14:16:01;8.77;;;1.37;;
7365;SDS011;3723;52.220;8.792;2023-12-20T14:18:32;9.50;;;1.00;;
7365;SDS011;3723;52.220;8.792;2023-12-20T14:20:59;8.87;;;1.30;;
7365;SDS011;3723;52.220;8.792;2023-12-20T14:23:26;7.50;;;1.20;;
7365;SDS011;3723;52.220;8.792;2023-12-20T14:25:54;7.43;;;1.33;;
7365;SDS011;3723;52.220;8.792;2023-12-20T14:28:23;9.17;;;1.27;;
7365;SDS011;3723;52.220;8.792;2023-12-20T14:30:50;7.23;;;1.00;;
7365;SDS011;3723;52.220;8.792;2023-12-20T14:33:18;6.77;;;0.83;;
7365;SDS011;3723;52.220;8.792;2023-12-20T14:35:46;8.07;;;1.40;;
7365;SDS011;3723;52.220;8.792;2023-12-20T14:38:13;13.53;;;1.83;;
7365;SDS011;3723;52.220;8.792;2023-12-20T14:40:41;7.80;;;1.00;;
7365;SDS011;3723;52.220;8.792;2023-12-20T14:43:09;9.07;;;1.37;;
7365;SDS011;3723;52.220;8.792;2023-12-20T14:45:36;14.13;;;1.23;;
7365;SDS011;3723;52.220;8.792;2023-12-20T14:48:04;8.73;;;0.90;;
7365;SDS011;3723;52.220;8.792;2023-12-20T14:50:31;8.63;;;1.50;;
7365;SDS011;3723;52.220;8.792;2023-12-20T14:52:58;10.80;;;1.80;;
7365;SDS011;3723;52.220;8.792;2023-12-20T14:55:25;8.10;;;1.00;;
7365;SDS011;3723;52.220;8.792;2023-12-20T14:57:56;8.93;;;0.93;;
7365;SDS011;3723;52.220;8.792;2023-12-20T15:00:24;10.23;;;1.23;;
7365;SDS011;3723;52.220;8.792;2023-12-20T15:02:51;8.90;;;1.83;;
7365;SDS011;3723;52.220;8.792;2023-12-20T15:05:19;8.50;;;1.20;;
7365;SDS011;3723;52.220;8.792;2023-12-20T15:07:46;8.40;;;1.10;;
7365;SDS011;3723;52.220;8.792;2023-12-20T15:10:13;8.33;;;1.70;;
7365;SDS011;3723;52.220;8.792;2023-12-20T15:12:42;10.30;;;1.17;;
7365;SDS011;3723;52.220;8.792;2023-12-20T15:15:10;7.10;;;0.90;;
7365;SDS011;3723;52.220;8.792;2023-12-20T15:17:38;7.90;;;1.10;;
7365;SDS011;3723;52.220;8.792;2023-12-20T15:20:05;9.37;;;1.20;;
7365;SDS011;3723;52.220;8.792;2023-12-20T15:22:36;12.83;;;1.20;;
7365;SDS011;3723;52.220;8.792;2023-12-20T15:25:03;7.50;;;1.30;;
7365;SDS011;3723;52.220;8.792;2023-12-20T15:27:31;9.80;;;1.40;;